createdAt,value
2022-10-12T00:00:44.795Z,43.70
2022-10-12T00:03:13.402Z,40.57
2022-10-12T00:05:42.877Z,34.97
2022-10-12T00:08:10.884Z,43.10
2022-10-12T00:10:42.157Z,57.60
2022-10-12T00:13:10.289Z,47.13
2022-10-12T00:15:39.213Z,40.67
2022-10-12T00:18:07.488Z,45.43
2022-10-12T00:20:35.713Z,47.33
2022-10-12T00:23:05.112Z,39.93
2022-10-12T00:25:36.539Z,51.33
2022-10-12T00:28:04.916Z,48.67
2022-10-12T00:30:33.181Z,47.57
2022-10-12T00:33:01.170Z,54.73
2022-10-12T00:35:30.725Z,49.40
2022-10-12T00:37:58.659Z,48.37
2022-10-12T00:40:27.988Z,46.50
2022-10-12T00:42:55.896Z,39.13
2022-10-12T00:45:26.173Z,51.90
2022-10-12T00:47:58.141Z,43.63
2022-10-12T00:50:28.636Z,42.50
2022-10-12T00:53:01.036Z,47.83
2022-10-12T00:55:33.753Z,42.83
2022-10-12T00:58:02.608Z,33.03
2022-10-12T01:00:30.581Z,37.43
2022-10-12T01:02:59.287Z,36.60
2022-10-12T01:05:27.478Z,31.93
2022-10-12T01:07:55.475Z,34.87
2022-10-12T01:10:23.384Z,30.07
2022-10-12T01:12:52.732Z,29.83
2022-10-12T01:15:20.843Z,33.83
2022-10-12T01:17:59.646Z,31.17
2022-10-12T01:20:44.011Z,29.53
2022-10-12T01:23:37.308Z,32.50
2022-10-12T01:26:24.226Z,36.23
2022-10-12T01:29:04.667Z,35.67
2022-10-12T01:31:40.391Z,29.77
2022-10-12T01:34:14.111Z,35.67
2022-10-12T01:36:45.995Z,36.50
2022-10-12T01:39:22.407Z,51.90
2022-10-12T01:41:55.280Z,52.77
2022-10-12T01:44:24.615Z,47.10
2022-10-12T01:46:56.151Z,53.63
2022-10-12T01:49:28.528Z,45.13
2022-10-12T01:52:22.287Z,53.17
2022-10-12T01:55:11.622Z,50.50
2022-10-12T01:57:49.231Z,51.67
2022-10-12T02:00:18.051Z,44.40
2022-10-12T02:02:56.827Z,45.80
2022-10-12T02:05:33.382Z,49.10
2022-10-12T02:08:06.700Z,55.03
2022-10-12T02:10:42.234Z,58.97
2022-10-12T02:13:14.206Z,53.37
2022-10-12T02:15:44.804Z,49.30
2022-10-12T02:18:19.814Z,58.43
2022-10-12T02:20:49.821Z,52.37
2022-10-12T02:23:19.286Z,54.50
2022-10-12T02:25:48.012Z,49.80
2022-10-12T02:28:20.473Z,56.70
2022-10-12T02:30:54.866Z,56.37
2022-10-12T02:33:30.135Z,50.53
2022-10-12T02:36:02.697Z,57.10
2022-10-12T02:38:35.402Z,55.63
2022-10-12T02:41:06.674Z,57.40
2022-10-12T02:43:38.904Z,53.90
2022-10-12T02:46:10.434Z,61.70
2022-10-12T02:48:41.449Z,57.90
2022-10-12T02:51:11.488Z,56.13
2022-10-12T02:53:39.886Z,49.53
2022-10-12T02:56:12.207Z,52.57
2022-10-12T02:58:40.437Z,54.90
2022-10-12T03:01:08.631Z,57.57
2022-10-12T03:03:36.609Z,49.77
2022-10-12T03:06:06.185Z,53.13
2022-10-12T03:08:34.210Z,45.67
2022-10-12T03:11:03.590Z,44.30
2022-10-12T03:13:31.953Z,40.33
2022-10-12T03:16:03.602Z,43.70
2022-10-12T03:18:32.015Z,36.03
2022-10-12T03:20:59.981Z,52.37
2022-10-12T03:23:29.298Z,42.17
2022-10-12T03:25:57.309Z,36.10
2022-10-12T03:28:25.333Z,40.00
2022-10-12T03:30:53.232Z,41.23
2022-10-12T03:33:21.317Z,40.63
2022-10-12T03:35:49.376Z,31.53
2022-10-12T03:38:18.417Z,38.60
2022-10-12T03:40:48.160Z,42.23
2022-10-12T03:43:16.113Z,31.60
2022-10-12T03:45:44.289Z,40.93
2022-10-12T03:48:12.213Z,34.13
2022-10-12T03:50:40.264Z,36.47
2022-10-12T03:53:08.620Z,32.70
2022-10-12T03:55:36.620Z,39.67
2022-10-12T03:58:05.948Z,32.27
2022-10-12T04:00:33.863Z,33.27
2022-10-12T04:03:02.172Z,35.10
2022-10-12T04:05:30.248Z,31.07
2022-10-12T04:07:58.439Z,32.97
2022-10-12T04:10:26.467Z,38.67
2022-10-12T04:12:54.370Z,36.63
2022-10-12T04:15:23.668Z,36.23
2022-10-12T04:17:51.565Z,35.17
2022-10-12T04:20:19.611Z,31.67
2022-10-12T04:22:47.513Z,31.27
2022-10-12T04:25:15.424Z,34.17
2022-10-12T04:27:43.340Z,30.57
2022-10-12T04:30:12.616Z,38.10
2022-10-12T04:32:41.863Z,34.13
2022-10-12T04:35:10.131Z,34.07
2022-10-12T04:37:38.419Z,34.83
2022-10-12T04:40:07.699Z,34.30
2022-10-12T04:42:35.602Z,27.77
2022-10-12T04:45:03.532Z,31.93
2022-10-12T04:47:31.392Z,37.13
2022-10-12T04:50:00.637Z,32.70
2022-10-12T04:52:28.708Z,26.63
2022-10-12T04:54:56.623Z,29.23
2022-10-12T04:57:25.703Z,30.03
2022-10-12T04:59:53.592Z,33.40
2022-10-12T05:02:21.756Z,26.80
2022-10-12T05:04:50.039Z,29.33
2022-10-12T05:07:19.422Z,35.47
2022-10-12T05:09:47.324Z,29.20
2022-10-12T05:12:15.231Z,24.57
2022-10-12T05:14:44.247Z,29.23
2022-10-12T05:17:12.363Z,30.47
2022-10-12T05:19:40.275Z,28.53
2022-10-12T05:22:08.172Z,32.83
2022-10-12T05:24:37.459Z,26.13
2022-10-12T05:27:05.404Z,28.80
2022-10-12T05:29:33.299Z,28.27
2022-10-12T05:32:01.279Z,29.57
2022-10-12T05:34:29.186Z,22.20
2022-10-12T05:36:58.288Z,30.03
2022-10-12T05:39:26.235Z,35.93
2022-10-12T05:41:55.939Z,38.53
2022-10-12T05:44:23.835Z,33.37
2022-10-12T05:46:51.787Z,27.87
2022-10-12T05:49:19.670Z,29.23
2022-10-12T05:51:47.680Z,31.93
2022-10-12T05:54:15.676Z,29.73
2022-10-12T05:56:43.602Z,32.93
2022-10-12T05:59:13.329Z,34.87
2022-10-12T06:01:41.429Z,29.90
2022-10-12T06:04:09.378Z,28.23
2022-10-12T06:06:37.481Z,31.93
2022-10-12T06:09:05.452Z,33.10
2022-10-12T06:11:36.290Z,30.37
2022-10-12T06:14:04.750Z,32.60
2022-10-12T06:16:34.047Z,30.90
2022-10-12T06:19:01.941Z,30.67
2022-10-12T06:21:34.312Z,27.07
2022-10-12T06:24:03.239Z,27.93
2022-10-12T06:26:31.430Z,26.30
2022-10-12T06:29:00.829Z,26.07
2022-10-12T06:31:29.262Z,30.00
2022-10-12T06:33:58.490Z,28.27
2022-10-12T06:36:26.597Z,30.83
2022-10-12T06:38:54.701Z,30.13
2022-10-12T06:41:22.613Z,34.43
2022-10-12T06:43:50.509Z,32.43
2022-10-12T06:46:18.545Z,36.20
2022-10-12T06:48:46.530Z,30.80
2022-10-12T06:51:16.037Z,32.67
2022-10-12T06:53:44.347Z,32.07
2022-10-12T06:56:13.218Z,40.03
2022-10-12T06:58:42.020Z,31.33
2022-10-12T07:01:11.074Z,32.23
2022-10-12T07:03:39.128Z,28.57
2022-10-12T07:06:09.224Z,26.23
2022-10-12T07:08:38.805Z,28.43
2022-10-12T07:11:08.862Z,32.27
2022-10-12T07:13:37.110Z,28.37
2022-10-12T07:16:05.564Z,22.87
2022-10-12T07:18:33.593Z,22.73
2022-10-12T07:21:02.997Z,33.97
2022-10-12T07:23:31.624Z,23.77
2022-10-12T07:26:00.988Z,22.07
2022-10-12T07:28:29.248Z,21.83
2022-10-12T07:31:02.347Z,22.90
2022-10-12T07:33:34.108Z,27.40
2022-10-12T07:36:13.892Z,19.53
2022-10-12T07:38:45.151Z,20.87
2022-10-12T07:41:15.371Z,18.87
2022-10-12T07:43:43.761Z,18.30
2022-10-12T07:46:12.020Z,17.70
2022-10-12T07:48:44.530Z,16.47
2022-10-12T07:51:15.312Z,16.83
2022-10-12T07:53:43.238Z,13.23
2022-10-12T07:56:15.931Z,14.53
2022-10-12T07:58:44.450Z,13.83
2022-10-12T08:01:12.728Z,13.70
2022-10-12T08:03:40.767Z,16.10
2022-10-12T08:06:13.042Z,16.23
2022-10-12T08:08:41.303Z,15.33
2022-10-12T08:11:09.560Z,18.60
2022-10-12T08:13:39.151Z,13.80
2022-10-12T08:16:10.698Z,20.27
2022-10-12T08:18:38.688Z,13.30
2022-10-12T08:21:08.131Z,14.40
2022-10-12T08:23:37.148Z,16.23
2022-10-12T08:26:06.425Z,18.67
2022-10-12T08:28:35.103Z,14.73
2022-10-12T08:31:09.052Z,19.60
2022-10-12T08:33:36.987Z,14.97
2022-10-12T08:36:06.669Z,18.03
2022-10-12T08:38:35.390Z,17.77
2022-10-12T08:41:15.511Z,17.33
2022-10-12T08:44:01.835Z,17.67
2022-10-12T08:46:31.610Z,14.90
2022-10-12T08:49:05.151Z,21.33
2022-10-12T08:51:46.907Z,17.33
2022-10-12T08:54:16.310Z,18.33
2022-10-12T08:56:45.498Z,19.87
2022-10-12T08:59:15.073Z,16.60
2022-10-12T09:02:03.048Z,19.13
2022-10-12T09:04:52.518Z,18.67
2022-10-12T09:07:26.012Z,15.80
2022-10-12T09:10:04.268Z,12.83
2022-10-12T09:12:45.236Z,15.93
2022-10-12T09:15:17.190Z,12.93
2022-10-12T09:17:50.853Z,16.77
2022-10-12T09:20:21.636Z,16.60
2022-10-12T09:22:51.881Z,11.77
2022-10-12T09:25:23.779Z,9.50
2022-10-12T09:27:52.516Z,15.17
2022-10-12T09:30:22.013Z,10.07
2022-10-12T09:33:15.683Z,9.20
2022-10-12T09:35:45.738Z,9.57
2022-10-12T09:38:13.865Z,11.47
2022-10-12T09:40:41.844Z,10.83
2022-10-12T09:43:10.488Z,6.07
2022-10-12T09:45:39.355Z,9.50
2022-10-12T09:48:14.983Z,12.53
2022-10-12T09:50:46.650Z,9.93
2022-10-12T09:53:31.258Z,7.30
2022-10-12T09:56:03.596Z,8.43
2022-10-12T09:58:34.579Z,8.93
2022-10-12T10:01:23.945Z,9.60
2022-10-12T10:04:10.887Z,10.03
2022-10-12T10:06:40.463Z,7.87
2022-10-12T10:09:30.803Z,7.97
2022-10-12T10:12:12.016Z,4.40
2022-10-12T10:14:42.657Z,6.23
2022-10-12T10:17:15.097Z,6.87
2022-10-12T10:19:50.575Z,6.00
2022-10-12T10:22:18.984Z,7.50
2022-10-12T10:24:55.236Z,8.73
2022-10-12T10:27:37.887Z,6.20
2022-10-12T10:30:40.602Z,3.73
2022-10-12T10:33:19.957Z,5.87
2022-10-12T10:36:00.580Z,5.33
2022-10-12T10:38:29.553Z,3.90
2022-10-12T10:40:58.633Z,6.57
2022-10-12T10:43:29.627Z,7.10
2022-10-12T10:46:00.929Z,6.17
2022-10-12T10:48:31.517Z,5.67
2022-10-12T10:51:02.916Z,5.40
2022-10-12T10:53:34.221Z,3.87
2022-10-12T10:56:06.984Z,6.53
2022-10-12T10:58:38.786Z,3.93
2022-10-12T11:01:16.434Z,5.30
2022-10-12T11:03:54.523Z,5.17
2022-10-12T11:06:33.509Z,5.40
2022-10-12T11:09:07.287Z,4.33
2022-10-12T11:11:39.172Z,4.60
2022-10-12T11:14:15.560Z,6.70
2022-10-12T11:16:48.304Z,5.10
2022-10-12T11:19:25.980Z,5.03
2022-10-12T11:21:59.730Z,6.47
2022-10-12T11:24:33.504Z,6.17
2022-10-12T11:27:07.575Z,5.47
2022-10-12T11:29:36.835Z,8.40
2022-10-12T11:32:08.766Z,5.13
2022-10-12T11:34:49.457Z,4.10
2022-10-12T11:37:21.752Z,8.23
2022-10-12T11:39:53.764Z,7.07
2022-10-12T11:42:30.098Z,3.83
2022-10-12T11:45:00.351Z,6.07
2022-10-12T11:47:37.091Z,5.43
2022-10-12T11:50:08.428Z,3.47
2022-10-12T11:52:41.855Z,4.73
2022-10-12T11:55:28.238Z,3.37
2022-10-12T11:57:59.716Z,6.77
2022-10-12T12:00:37.135Z,9.87
2022-10-12T12:03:17.180Z,6.23
2022-10-12T12:05:45.171Z,8.47
2022-10-12T12:08:24.283Z,6.63
2022-10-12T12:10:55.092Z,3.53
2022-10-12T12:13:27.079Z,6.00
2022-10-12T12:16:34.026Z,4.53
2022-10-12T12:19:17.100Z,4.23
2022-10-12T12:22:20.748Z,6.63
2022-10-12T12:25:21.464Z,4.93
2022-10-12T12:27:53.202Z,10.30
2022-10-12T12:30:37.409Z,6.73
2022-10-12T12:33:26.302Z,7.97
2022-10-12T12:35:58.049Z,5.60
2022-10-12T12:38:29.959Z,6.90
2022-10-12T12:41:11.994Z,3.43
2022-10-12T12:43:58.362Z,9.37
2022-10-12T12:46:42.521Z,4.40
2022-10-12T12:49:27.049Z,3.33
2022-10-12T12:51:57.890Z,5.60
2022-10-12T12:54:26.550Z,5.10
2022-10-12T12:57:21.264Z,5.80
2022-10-12T13:00:15.578Z,5.07
2022-10-12T13:03:20.070Z,4.03
2022-10-12T13:06:35.235Z,4.70
2022-10-12T13:09:35.185Z,4.50
2022-10-12T13:12:32.016Z,4.40
2022-10-12T13:15:24.451Z,4.27
2022-10-12T13:18:14.523Z,5.63
2022-10-12T13:20:51.605Z,9.77
2022-10-12T13:23:22.768Z,6.67
2022-10-12T13:25:57.052Z,8.33
2022-10-12T13:28:30.133Z,7.60
2022-10-12T13:31:02.879Z,8.47
2022-10-12T13:33:34.864Z,9.63
2022-10-12T13:36:07.295Z,9.47
2022-10-12T13:38:38.543Z,11.13
2022-10-12T13:41:09.687Z,12.90
2022-10-12T13:43:44.909Z,5.07
2022-10-12T13:46:14.045Z,6.00
2022-10-12T13:48:59.238Z,11.83
2022-10-12T13:51:30.364Z,6.23
2022-10-12T13:53:58.739Z,8.03
2022-10-12T13:56:29.240Z,8.93
2022-10-12T13:59:04.263Z,5.40
2022-10-12T14:01:35.551Z,5.10
2022-10-12T14:04:04.641Z,6.47
2022-10-12T14:06:34.526Z,9.27
2022-10-12T14:09:08.683Z,6.50
2022-10-12T14:11:37.168Z,5.40
2022-10-12T14:14:07.554Z,9.90
2022-10-12T14:16:35.570Z,4.93
2022-10-12T14:19:19.285Z,8.57
2022-10-12T14:21:49.327Z,7.63
2022-10-12T14:24:20.176Z,9.57
2022-10-12T14:26:55.532Z,8.67
2022-10-12T14:29:35.751Z,5.13
2022-10-12T14:32:05.840Z,9.50
2022-10-12T14:34:36.986Z,5.70
2022-10-12T14:37:06.865Z,7.00
2022-10-12T14:39:35.178Z,10.23
2022-10-12T14:42:04.930Z,7.00
2022-10-12T14:44:44.522Z,6.70
2022-10-12T14:47:19.055Z,5.17
2022-10-12T14:49:48.357Z,4.57
2022-10-12T14:52:21.301Z,6.60
2022-10-12T14:54:52.601Z,8.07
2022-10-12T14:57:21.696Z,9.70
2022-10-12T14:59:51.166Z,5.30
2022-10-12T15:02:21.547Z,3.40
2022-10-12T15:04:49.767Z,8.20
2022-10-12T15:07:20.048Z,7.20
2022-10-12T15:09:48.179Z,6.40
2022-10-12T15:12:18.383Z,6.97
2022-10-12T15:14:46.672Z,7.03
2022-10-12T15:17:17.566Z,35.33
2022-10-12T15:19:47.472Z,38.53
2022-10-12T15:22:18.057Z,16.07
2022-10-12T15:24:46.345Z,43.60
2022-10-12T15:27:14.735Z,131.73
2022-10-12T15:29:42.920Z,161.13
2022-10-12T15:32:12.812Z,138.33
2022-10-12T15:34:42.377Z,64.40
2022-10-12T15:37:10.549Z,97.60
2022-10-12T15:39:38.621Z,49.03
2022-10-12T15:42:06.736Z,22.17
2022-10-12T15:44:41.473Z,12.03
2022-10-12T15:47:10.454Z,11.33
2022-10-12T15:49:38.675Z,10.67
2022-10-12T15:52:10.900Z,13.43
2022-10-12T15:54:38.826Z,5.23
2022-10-12T15:57:07.631Z,6.00
2022-10-12T15:59:36.110Z,8.83
2022-10-12T16:02:04.115Z,15.13
2022-10-12T16:04:31.995Z,15.73
2022-10-12T16:07:01.325Z,13.63
2022-10-12T16:09:30.567Z,12.47
2022-10-12T16:11:58.468Z,13.57
2022-10-12T16:14:27.066Z,12.20
2022-10-12T16:16:54.976Z,11.60
2022-10-12T16:19:22.848Z,10.60
2022-10-12T16:21:50.764Z,16.13
2022-10-12T16:24:18.811Z,12.63
2022-10-12T16:26:49.877Z,12.63
2022-10-12T16:29:17.823Z,10.83
2022-10-12T16:31:45.819Z,17.70
2022-10-12T16:34:13.883Z,13.43
2022-10-12T16:36:41.814Z,17.10
2022-10-12T16:39:09.703Z,14.93
2022-10-12T16:41:37.613Z,20.97
2022-10-12T16:44:06.896Z,14.53
2022-10-12T16:46:36.912Z,30.83
2022-10-12T16:49:04.882Z,20.07
2022-10-12T16:51:32.779Z,17.87
2022-10-12T16:54:00.838Z,19.10
2022-10-12T16:56:28.780Z,19.97
2022-10-12T16:58:56.643Z,21.17
2022-10-12T17:01:25.964Z,19.30
2022-10-12T17:03:54.754Z,21.73
2022-10-12T17:06:22.654Z,17.37
2022-10-12T17:08:50.538Z,16.87
2022-10-12T17:11:18.454Z,25.20
2022-10-12T17:13:49.131Z,26.93
2022-10-12T17:16:35.834Z,28.10
2022-10-12T17:19:05.232Z,20.57
2022-10-12T17:21:33.267Z,18.67
2022-10-12T17:24:02.530Z,23.23
2022-10-12T17:26:30.775Z,24.23
2022-10-12T17:28:58.665Z,23.33
2022-10-12T17:31:27.038Z,19.73
2022-10-12T17:33:55.257Z,25.73
2022-10-12T17:36:28.245Z,17.80
2022-10-12T17:38:57.388Z,22.20
2022-10-12T17:41:25.770Z,21.00
2022-10-12T17:43:53.866Z,21.67
2022-10-12T17:46:22.911Z,29.37
2022-10-12T17:48:51.161Z,25.73
2022-10-12T17:51:19.387Z,23.40
2022-10-12T17:53:48.726Z,40.07
2022-10-12T17:56:16.733Z,37.70
2022-10-12T17:58:44.685Z,36.73
2022-10-12T18:01:15.269Z,38.70
2022-10-12T18:03:46.526Z,32.50
2022-10-12T18:06:16.383Z,33.30
2022-10-12T18:08:44.684Z,34.03
2022-10-12T18:11:14.924Z,36.70
2022-10-12T18:13:47.258Z,46.13
2022-10-12T18:16:16.055Z,36.60
2022-10-12T18:18:44.328Z,44.80
2022-10-12T18:21:14.789Z,55.57
2022-10-12T18:23:42.919Z,42.17
2022-10-12T18:26:13.324Z,46.90
2022-10-12T18:28:41.954Z,64.33
2022-10-12T18:31:16.090Z,44.67
2022-10-12T18:33:43.980Z,47.07
2022-10-12T18:36:12.828Z,52.17
2022-10-12T18:38:40.776Z,59.57
2022-10-12T18:41:15.399Z,60.23
2022-10-12T18:43:43.425Z,54.53
2022-10-12T18:46:13.454Z,48.67
2022-10-12T18:48:41.386Z,41.97
2022-10-12T18:51:20.609Z,31.70
2022-10-12T18:53:48.904Z,36.40
2022-10-12T18:56:19.176Z,40.03
2022-10-12T18:58:47.201Z,38.60
2022-10-12T19:01:17.674Z,35.33
2022-10-12T19:03:45.985Z,27.53
2022-10-12T19:06:16.857Z,40.87
2022-10-12T19:08:45.082Z,34.17
2022-10-12T19:11:14.220Z,34.43
2022-10-12T19:13:43.471Z,31.03
2022-10-12T19:16:14.607Z,36.13
2022-10-12T19:18:43.439Z,26.93
2022-10-12T19:21:13.940Z,29.23
2022-10-12T19:23:42.599Z,33.93
2022-10-12T19:26:13.816Z,33.67
2022-10-12T19:28:43.523Z,29.37
2022-10-12T19:31:14.711Z,31.93
2022-10-12T19:33:43.147Z,36.47
2022-10-12T19:36:12.701Z,33.70
2022-10-12T19:38:41.204Z,32.13
2022-10-12T19:41:09.929Z,35.30
2022-10-12T19:43:38.777Z,28.63
2022-10-12T19:46:10.130Z,38.57
2022-10-12T19:48:39.148Z,30.10
2022-10-12T19:51:08.993Z,28.20
2022-10-12T19:53:36.976Z,30.57
2022-10-12T19:56:07.537Z,23.30
2022-10-12T19:58:35.464Z,28.53
2022-10-12T20:01:04.302Z,28.80
2022-10-12T20:03:33.920Z,29.30
2022-10-12T20:06:02.224Z,21.67
2022-10-12T20:08:30.147Z,34.00
2022-10-12T20:10:58.045Z,25.57
2022-10-12T20:13:25.968Z,31.93
2022-10-12T20:15:54.108Z,25.20
2022-10-12T20:18:22.349Z,24.10
2022-10-12T20:20:51.784Z,25.23
2022-10-12T20:23:19.656Z,26.70
2022-10-12T20:25:49.396Z,25.37
2022-10-12T20:28:18.228Z,26.30
2022-10-12T20:30:46.636Z,25.23
2022-10-12T20:33:15.499Z,20.43
2022-10-12T20:35:47.552Z,23.97
2022-10-12T20:38:17.143Z,28.37
2022-10-12T20:40:45.912Z,20.27
2022-10-12T20:43:13.856Z,24.53
2022-10-12T20:45:41.787Z,25.07
2022-10-12T20:48:09.915Z,23.93
2022-10-12T20:50:38.465Z,21.63
2022-10-12T20:53:06.404Z,25.50
2022-10-12T20:55:35.683Z,20.53
2022-10-12T20:58:03.627Z,26.70
2022-10-12T21:00:31.729Z,20.23
2022-10-12T21:02:59.657Z,26.80
2022-10-12T21:05:27.552Z,24.23
2022-10-12T21:07:55.475Z,18.83
2022-10-12T21:10:23.376Z,20.53
2022-10-12T21:12:52.659Z,18.83
2022-10-12T21:15:20.627Z,16.30
2022-10-12T21:17:48.567Z,19.00
2022-10-12T21:20:16.692Z,20.97
2022-10-12T21:22:46.552Z,26.93
2022-10-12T21:25:14.645Z,20.87
2022-10-12T21:27:42.580Z,26.20
2022-10-12T21:30:12.632Z,24.97
2022-10-12T21:32:40.513Z,22.83
2022-10-12T21:35:08.968Z,20.60
2022-10-12T21:37:36.929Z,25.13
2022-10-12T21:40:05.465Z,30.53
2022-10-12T21:42:33.361Z,24.30
2022-10-12T21:45:01.280Z,25.20
2022-10-12T21:47:30.881Z,24.43
2022-10-12T21:49:58.900Z,27.33
2022-10-12T21:52:27.016Z,24.50
2022-10-12T21:54:55.463Z,27.30
2022-10-12T21:57:23.536Z,32.20
2022-10-12T21:59:51.487Z,40.80
2022-10-12T22:02:19.706Z,29.77
2022-10-12T22:04:49.420Z,36.40
2022-10-12T22:07:17.322Z,35.33
2022-10-12T22:09:45.275Z,36.47
2022-10-12T22:12:13.153Z,33.10
2022-10-12T22:14:41.747Z,31.83
2022-10-12T22:17:09.818Z,35.63
2022-10-12T22:19:37.971Z,35.77
2022-10-12T22:22:07.210Z,32.73
2022-10-12T22:24:35.167Z,33.17
2022-10-12T22:27:03.122Z,27.23
2022-10-12T22:29:31.622Z,28.57
2022-10-12T22:31:59.698Z,34.03
2022-10-12T22:34:29.086Z,30.17
2022-10-12T22:36:57.154Z,31.57
2022-10-12T22:39:26.997Z,33.27
2022-10-12T22:41:55.311Z,32.43
2022-10-12T22:44:23.385Z,34.73
2022-10-12T22:46:51.294Z,29.50
2022-10-12T22:49:19.270Z,27.10
2022-10-12T22:51:47.137Z,35.17
2022-10-12T22:54:15.041Z,30.87
2022-10-12T22:56:44.369Z,31.40
2022-10-12T22:59:14.714Z,24.27
2022-10-12T23:01:42.630Z,26.83
2022-10-12T23:04:10.642Z,27.80
2022-10-12T23:06:38.551Z,32.50
2022-10-12T23:09:06.460Z,39.97
2022-10-12T23:11:34.397Z,29.00
2022-10-12T23:14:03.630Z,31.80
2022-10-12T23:16:33.052Z,30.23
2022-10-12T23:19:02.673Z,38.50
2022-10-12T23:21:32.160Z,32.83
2022-10-12T23:24:01.340Z,29.33
2022-10-12T23:26:30.518Z,35.87
2022-10-12T23:28:58.773Z,31.50
2022-10-12T23:31:30.554Z,27.47
2022-10-12T23:34:00.182Z,32.07
2022-10-12T23:36:28.648Z,28.37
2022-10-12T23:38:56.746Z,28.73
2022-10-12T23:41:24.624Z,26.43
2022-10-12T23:43:52.520Z,31.27
2022-10-12T23:46:20.436Z,25.50
2022-10-12T23:48:49.768Z,27.47
2022-10-12T23:51:17.830Z,28.17
2022-10-12T23:53:46.049Z,26.83
2022-10-12T23:56:14.173Z,20.20
2022-10-12T23:58:42.256Z,28.67
